North Dighton, MA (02764)

1:32 PM EST on November 26, 2014 (GMT -0500)
North Dighton | Change Station
CLOSE
Current Station
Personal Weather Station
Location: North Dighton, MA
Elevation: 65 ft
Nearby Weather Stations

Elev 65 ft 41.87 °N, 71.14 °W | Updated 7 seconds ago

Rain
Rain
34.9 °F
Feels Like 31 °F
N
4.0
Wind Variable Wind from North
Gusts 9.0 mph

Today
High -- | Low -- °F
--% Chance of Precip.
Yesterday
High -- | Low -- °F
Precip. -- in
6:47 AM 4:16 PM
Waxing Crescent, 21% visible
Pressure 30.02 in
Visibility 2.5 miles
Clouds Mostly Cloudy 500 ft
Overcast 2700 ft
Windchill 31 °F
Dew Point 30 °F
Humidity 82%
Rainfall 0.56 in
Snow Depth Not available.
UV 1 out of 12
Pollen .10 out of 12
Air Quality Not available.
Flu Activity Not available.
METAR KTAN 261752Z AUTO 02007KT 2 1/2SM RA BR BKN005 OVC027 03/02 A3002 RMK AO2 PRESFR SLP166 P0015 60055 T00280017 10078 20028 58037

More Conditions Fewer Conditions

Pressure 30.02 in
Visibility 2.5 miles
Clouds Mostly Cloudy 500 ft
Overcast 2700 ft
Windchill 31 °F
Dew Point 30 °F
Humidity 82%
Rainfall 0.56 in
Snow Depth Not available.
UV 1 out of 12
Pollen .10 out of 12
Air Quality Not available.
Flu Activity Not available.
METAR KTAN 261752Z AUTO 02007KT 2 1/2SM RA BR BKN005 OVC027 03/02 A3002 RMK AO2 PRESFR SLP166 P0015 60055 T00280017 10078 20028 58037

More Conditions Fewer Conditions

10-Day Weather Forecast

Almanac

Astronomy

Nov. 26, 2014 Rise Set
Actual Time
Civil Twilight
Nautical Twilight
Astronomical Twilight
Moon
Length of Visible Light
Length of Day
Tomorrow will be .
, % of the Moon is Illuminated

Today's Extremes

State Highs State Lows

Community

WunderPhotos

Upload Photos

1,773,824 photos uploaded!

WunderBlogs® & News

Nearby

Air Quality

  Air Quality AQ Index Pollutant
Not available.

Snow Depth

Station Depth Elevation

Earthquake Activity

City Distance Mag. Time & Date
Minimum magnitude displayed is 2.5.

Coastal Water Temperatures

Place Temperature

Nearby Weather Stations